createdAt,value
2022-12-11T00:00:29.648Z,94825.56
2022-12-11T00:01:31.277Z,94823.19
2022-12-11T00:02:32.840Z,94810.81
2022-12-11T00:03:34.479Z,94827.34
2022-12-11T00:04:36.082Z,94838.59
2022-12-11T00:05:40.589Z,94832.81
2022-12-11T00:06:42.636Z,94841.72
2022-12-11T00:07:44.206Z,94834.78
2022-12-11T00:08:46.402Z,94829.47
2022-12-11T00:09:47.922Z,94832.59
2022-12-11T00:10:50.339Z,94824.06
2022-12-11T00:11:51.967Z,94820.94
2022-12-11T00:12:53.580Z,94836.34
2022-12-11T00:13:55.282Z,94833.25
2022-12-11T00:14:56.880Z,94840.13
2022-12-11T00:15:58.828Z,94842.00
2022-12-11T00:17:00.429Z,94835.03
2022-12-11T00:18:02.004Z,94804.97
2022-12-11T00:19:04.220Z,94840.78
2022-12-11T00:20:06.355Z,94831.59
2022-12-11T00:21:11.291Z,94830.84
2022-12-11T00:22:12.829Z,94831.22
2022-12-11T00:23:14.375Z,94843.53
2022-12-11T00:24:15.917Z,94824.97
2022-12-11T00:25:17.506Z,94833.47
2022-12-11T00:26:19.147Z,94833.91
2022-12-11T00:27:20.718Z,94830.75
2022-12-11T00:28:22.261Z,94833.13
2022-12-11T00:29:23.903Z,94809.25
2022-12-11T00:30:25.529Z,94831.59
2022-12-11T00:31:27.271Z,94820.44
2022-12-11T00:32:30.131Z,94836.97
2022-12-11T00:33:34.221Z,94826.19
2022-12-11T00:34:35.792Z,94841.59
2022-12-11T00:35:45.825Z,94833.19
2022-12-11T00:36:48.355Z,94825.09
2022-12-11T00:37:49.902Z,94824.72
2022-12-11T00:38:53.007Z,94813.16
2022-12-11T00:39:54.644Z,94822.34
2022-12-11T00:40:59.887Z,94829.59
2022-12-11T00:42:01.419Z,94828.78
2022-12-11T00:43:03.714Z,94823.84
2022-12-11T00:44:05.764Z,94824.66
2022-12-11T00:45:07.922Z,94822.34
2022-12-11T00:46:10.601Z,94828.06
2022-12-11T00:47:12.688Z,94804.97
2022-12-11T00:48:14.463Z,94830.81
2022-12-11T00:49:16.910Z,94820.03
2022-12-11T00:50:18.555Z,94810.81
2022-12-11T00:51:20.207Z,94820.81
2022-12-11T00:52:22.258Z,94807.34
2022-12-11T00:53:23.971Z,94790.00
2022-12-11T00:54:25.533Z,94801.50
2022-12-11T00:55:28.712Z,94789.88
2022-12-11T00:56:30.262Z,94797.19
2022-12-11T00:57:31.774Z,94790.59
2022-12-11T00:58:33.295Z,94794.38
2022-12-11T00:59:35.245Z,94803.53
2022-12-11T01:00:37.113Z,94799.31
2022-12-11T01:01:38.995Z,94797.72
2022-12-11T01:02:40.978Z,94798.88
2022-12-11T01:03:42.594Z,94770.31
2022-12-11T01:04:44.162Z,94783.25
2022-12-11T01:05:54.037Z,94802.06
2022-12-11T01:06:55.596Z,94806.22
2022-12-11T01:07:57.194Z,94817.72
2022-12-11T01:09:17.397Z,94801.09
2022-12-11T01:10:25.225Z,94824.56
2022-12-11T01:11:27.252Z,94827.25
2022-12-11T01:12:28.823Z,94833.75
2022-12-11T01:13:30.731Z,94827.56
2022-12-11T01:14:32.285Z,94845.22
2022-12-11T01:15:41.621Z,94833.59
2022-12-11T01:16:43.603Z,94853.66
2022-12-11T01:17:45.396Z,94859.06
2022-12-11T01:18:46.939Z,94876.91
2022-12-11T01:19:48.483Z,94887.78
2022-12-11T01:20:50.024Z,94897.03
2022-12-11T01:21:51.589Z,94894.41
2022-12-11T01:22:54.556Z,94912.47
2022-12-11T01:23:56.258Z,94925.22
2022-12-11T01:24:57.831Z,94906.47
2022-12-11T01:26:08.914Z,94910.06
2022-12-11T01:27:10.471Z,94906.75
2022-12-11T01:28:12.062Z,94897.88
2022-12-11T01:29:13.617Z,94909.50
2022-12-11T01:30:15.340Z,94920.00
2022-12-11T01:31:18.754Z,94907.69
2022-12-11T01:32:20.311Z,94916.97
2022-12-11T01:33:21.857Z,94914.69
2022-12-11T01:34:23.446Z,94909.25
2022-12-11T01:35:24.947Z,94902.75
2022-12-11T01:36:26.581Z,94900.06
2022-12-11T01:37:28.187Z,94898.53
2022-12-11T01:38:29.750Z,94895.38
2022-12-11T01:39:31.646Z,94898.53
2022-12-11T01:40:33.224Z,94890.78
2022-12-11T01:41:34.749Z,94889.63
2022-12-11T01:42:36.326Z,94896.91
2022-12-11T01:43:56.280Z,94903.03
2022-12-11T01:45:29.068Z,94906.16
2022-12-11T01:46:33.070Z,94897.69
2022-12-11T01:47:34.681Z,94901.56
2022-12-11T01:48:41.956Z,94894.69
2022-12-11T01:49:44.011Z,94900.13
2022-12-11T01:50:50.914Z,94886.28
2022-12-11T01:51:59.190Z,94884.75
2022-12-11T01:53:01.600Z,94889.78
2022-12-11T01:54:08.974Z,94880.22
2022-12-11T01:55:10.824Z,94880.97
2022-12-11T01:56:13.187Z,94867.91
2022-12-11T01:57:16.258Z,94878.63
2022-12-11T01:58:20.279Z,94885.19
2022-12-11T01:59:26.952Z,94893.25
2022-12-11T02:00:28.761Z,94879.44
2022-12-11T02:01:39.889Z,94884.84
2022-12-11T02:02:41.892Z,94875.22
2022-12-11T02:03:43.877Z,94877.19
2022-12-11T02:04:46.405Z,94861.81
2022-12-11T02:05:47.952Z,94871.81
2022-12-11T02:06:52.041Z,94849.47
2022-12-11T02:07:58.524Z,94868.28
2022-12-11T02:09:01.370Z,94863.63
2022-12-11T02:10:03.520Z,94869.00
2022-12-11T02:11:19.635Z,94860.94
2022-12-11T02:12:31.765Z,94858.59
2022-12-11T02:14:10.418Z,94858.59
2022-12-11T02:15:20.702Z,94860.94
2022-12-11T02:16:35.777Z,94851.72
2022-12-11T02:18:05.083Z,94858.66
2022-12-11T02:19:30.984Z,94855.19
2022-12-11T02:20:44.348Z,94851.25
2022-12-11T02:21:50.895Z,94846.22
2022-12-11T02:22:58.232Z,94847.75
2022-12-11T02:24:20.708Z,94847.66
2022-12-11T02:25:37.358Z,94860.69
2022-12-11T02:26:53.922Z,94862.66
2022-12-11T02:28:49.101Z,94872.28
2022-12-11T02:29:58.554Z,94868.78
2022-12-11T02:31:12.811Z,94885.31
2022-12-11T02:32:21.442Z,94884.88
2022-12-11T02:33:32.996Z,94887.94
2022-12-11T02:35:04.701Z,94883.34
2022-12-11T02:36:08.183Z,94883.25
2022-12-11T02:37:16.535Z,94893.63
2022-12-11T02:38:32.476Z,94893.97
2022-12-11T02:39:38.157Z,94900.19
2022-12-11T02:40:42.513Z,94889.78
2022-12-11T02:41:48.862Z,94892.81
2022-12-11T02:42:52.210Z,94904.38
2022-12-11T02:43:56.616Z,94903.59
2022-12-11T02:45:00.716Z,94902.00
2022-12-11T02:46:06.233Z,94902.00
2022-12-11T02:47:13.723Z,94898.84
2022-12-11T02:48:17.357Z,94909.56
2022-12-11T02:49:21.605Z,94901.22
2022-12-11T02:50:23.874Z,94898.03
2022-12-11T02:51:31.370Z,94887.53
2022-12-11T02:52:34.662Z,94901.47
2022-12-11T02:53:40.128Z,94904.16
2022-12-11T02:54:43.377Z,94905.41
2022-12-11T02:55:47.660Z,94905.78
2022-12-11T02:57:19.423Z,94905.00
2022-12-11T02:58:28.187Z,94898.47
2022-12-11T02:59:35.805Z,94908.19
2022-12-11T03:00:37.574Z,94907.44
2022-12-11T03:01:39.166Z,94903.59
2022-12-11T03:02:41.533Z,94896.31
2022-12-11T03:03:43.324Z,94893.63
2022-12-11T03:04:46.004Z,94889.00
2022-12-11T03:05:47.981Z,94890.97
2022-12-11T03:06:53.431Z,94890.97
2022-12-11T03:07:55.149Z,94892.97
2022-12-11T03:08:56.787Z,94901.03
2022-12-11T03:09:58.431Z,94886.03
2022-12-11T03:11:00.016Z,94891.44
2022-12-11T03:12:01.591Z,94884.09
2022-12-11T03:13:04.472Z,94900.66
2022-12-11T03:14:08.207Z,94899.84
2022-12-11T03:15:14.936Z,94902.13
2022-12-11T03:16:25.582Z,94912.09
2022-12-11T03:17:34.440Z,94908.97
2022-12-11T03:18:52.550Z,94909.00
2022-12-11T03:20:06.081Z,94912.78
2022-12-11T03:21:21.440Z,94917.78
2022-12-11T03:22:34.072Z,94929.78
2022-12-11T03:23:47.777Z,94927.78
2022-12-11T03:25:01.184Z,94920.91
2022-12-11T03:26:06.512Z,94923.63
2022-12-11T03:27:13.939Z,94915.88
2022-12-11T03:28:26.294Z,94919.00
2022-12-11T03:29:37.837Z,94917.47
2022-12-11T03:30:42.098Z,94922.13
2022-12-11T03:32:11.362Z,94919.84
2022-12-11T03:33:25.610Z,94914.38
2022-12-11T03:34:35.715Z,94913.69
2022-12-11T03:35:53.381Z,94927.56
2022-12-11T03:36:58.170Z,94922.13
2022-12-11T03:38:05.377Z,94926.78
2022-12-11T03:39:18.876Z,94924.06
2022-12-11T03:40:23.007Z,94916.63
2022-12-11T03:41:27.053Z,94920.03
2022-12-11T03:42:29.647Z,94915.47
2022-12-11T03:43:32.328Z,94907.47
2022-12-11T03:44:36.260Z,94902.13
2022-12-11T03:45:40.099Z,94898.25
2022-12-11T03:46:45.472Z,94899.38
2022-12-11T03:47:48.002Z,94895.16
2022-12-11T03:48:50.599Z,94895.16
2022-12-11T03:49:52.837Z,94890.56
2022-12-11T03:50:55.299Z,94891.28
2022-12-11T03:51:59.979Z,94894.75
2022-12-11T03:53:03.429Z,94893.19
2022-12-11T03:54:05.726Z,94892.81
2022-12-11T03:55:09.488Z,94889.78
2022-12-11T03:56:14.630Z,94892.88
2022-12-11T03:57:20.722Z,94887.09
2022-12-11T03:58:22.348Z,94883.63
2022-12-11T03:59:24.215Z,94886.34
2022-12-11T04:00:25.719Z,94887.88
2022-12-11T04:01:27.554Z,94886.34
2022-12-11T04:02:29.162Z,94888.25
2022-12-11T04:03:30.813Z,94897.91
2022-12-11T04:04:32.344Z,94890.56
2022-12-11T04:05:33.919Z,94887.41
2022-12-11T04:06:35.491Z,94893.56
2022-12-11T04:07:37.561Z,94897.84
2022-12-11T04:08:39.100Z,94902.13
2022-12-11T04:09:40.713Z,94900.56
2022-12-11T04:10:42.701Z,94897.50
2022-12-11T04:11:44.315Z,94902.88
2022-12-11T04:12:45.823Z,94892.13
2022-12-11T04:14:07.312Z,94892.88
2022-12-11T04:15:09.358Z,94889.78
2022-12-11T04:16:11.185Z,94888.66
2022-12-11T04:17:32.801Z,94887.50
2022-12-11T04:18:54.084Z,94883.63
2022-12-11T04:20:14.241Z,94882.47
2022-12-11T04:21:39.251Z,94886.72
2022-12-11T04:22:59.639Z,94885.16
2022-12-11T04:24:16.075Z,94892.09
2022-12-11T04:25:17.655Z,94885.94
2022-12-11T04:26:21.104Z,94890.56
2022-12-11T04:27:42.119Z,94888.25
2022-12-11T04:28:45.003Z,94881.31
2022-12-11T04:29:46.512Z,94878.25
2022-12-11T04:30:49.806Z,94882.84
2022-12-11T04:31:51.718Z,94880.53
2022-12-11T04:32:54.745Z,94890.94
2022-12-11T04:33:56.329Z,94886.72
2022-12-11T04:34:57.939Z,94887.41
2022-12-11T04:36:00.952Z,94889.78
2022-12-11T04:37:02.561Z,94887.41
2022-12-11T04:38:04.431Z,94881.56
2022-12-11T04:39:06.360Z,94891.19
2022-12-11T04:40:11.360Z,94889.66
2022-12-11T04:41:15.361Z,94886.97
2022-12-11T04:42:16.867Z,94890.03
2022-12-11T04:43:18.390Z,94891.59
2022-12-11T04:44:19.991Z,94888.13
2022-12-11T04:45:21.630Z,94892.75
2022-12-11T04:46:24.471Z,94905.81
2022-12-11T04:47:26.022Z,94900.81
2022-12-11T04:48:27.522Z,94901.63
2022-12-11T04:49:29.092Z,94904.69
2022-12-11T04:50:30.614Z,94902.75
2022-12-11T04:51:32.145Z,94900.44
2022-12-11T04:52:34.088Z,94910.44
2022-12-11T04:53:36.706Z,94910.84
2022-12-11T04:54:38.323Z,94909.69
2022-12-11T04:55:39.917Z,94911.22
2022-12-11T04:56:41.578Z,94915.84
2022-12-11T04:57:43.185Z,94910.44
2022-12-11T04:58:45.722Z,94910.44
2022-12-11T04:59:47.869Z,94925.44
2022-12-11T05:00:49.410Z,94917.34
2022-12-11T05:01:51.057Z,94911.50
2022-12-11T05:02:52.693Z,94924.19
2022-12-11T05:03:54.278Z,94925.72
2022-12-11T05:04:55.846Z,94920.75
2022-12-11T05:05:57.394Z,94924.59
2022-12-11T05:06:59.435Z,94917.28
2022-12-11T05:08:01.044Z,94935.00
2022-12-11T05:09:02.590Z,94925.75
2022-12-11T05:10:05.662Z,94927.28
2022-12-11T05:11:10.157Z,94928.44
2022-12-11T05:12:11.680Z,94931.13
2022-12-11T05:13:13.204Z,94931.91
2022-12-11T05:14:14.990Z,94930.31
2022-12-11T05:15:16.641Z,94921.13
2022-12-11T05:16:18.370Z,94931.13
2022-12-11T05:17:21.511Z,94929.59
2022-12-11T05:18:23.465Z,94931.13
2022-12-11T05:19:25.842Z,94928.00
2022-12-11T05:20:27.496Z,94935.00
2022-12-11T05:21:33.319Z,94920.34
2022-12-11T05:22:38.190Z,94919.91
2022-12-11T05:23:40.475Z,94924.53
2022-12-11T05:24:42.347Z,94928.44
2022-12-11T05:25:51.069Z,94929.03
2022-12-11T05:26:52.581Z,94937.56
2022-12-11T05:27:54.076Z,94926.34
2022-12-11T05:28:55.957Z,94928.31
2022-12-11T05:29:59.520Z,94938.66
2022-12-11T05:31:09.006Z,94927.25
2022-12-11T05:32:10.579Z,94926.91
2022-12-11T05:33:12.141Z,94915.75
2022-12-11T05:34:15.193Z,94922.66
2022-12-11T05:35:16.846Z,94913.41
2022-12-11T05:36:20.546Z,94916.44
2022-12-11T05:37:22.132Z,94917.22
2022-12-11T05:38:23.931Z,94909.19
2022-12-11T05:39:25.702Z,94913.41
2022-12-11T05:40:27.366Z,94918.00
2022-12-11T05:41:31.312Z,94906.03
2022-12-11T05:42:33.753Z,94912.59
2022-12-11T05:43:36.198Z,94915.66
2022-12-11T05:44:37.748Z,94906.75
2022-12-11T05:45:39.284Z,94909.03
2022-12-11T05:46:41.011Z,94909.81
2022-12-11T05:47:42.735Z,94907.47
2022-12-11T05:48:46.707Z,94913.22
2022-12-11T05:49:48.248Z,94913.94
2022-12-11T05:50:59.863Z,94917.44
2022-12-11T05:52:01.422Z,94916.69
2022-12-11T05:53:04.222Z,94911.69
2022-12-11T05:54:06.059Z,94911.69
2022-12-11T05:55:09.700Z,94918.25
2022-12-11T05:56:17.377Z,94908.66
2022-12-11T05:57:18.911Z,94913.22
2022-12-11T05:58:21.355Z,94913.16
2022-12-11T05:59:22.855Z,94913.22
2022-12-11T06:00:24.394Z,94911.34
2022-12-11T06:01:32.106Z,94903.97
2022-12-11T06:02:36.796Z,94901.59
2022-12-11T06:03:38.539Z,94908.50
2022-12-11T06:04:40.129Z,94909.69
2022-12-11T06:05:42.814Z,94910.53
2022-12-11T06:06:44.417Z,94905.53
2022-12-11T06:07:45.984Z,94907.13
2022-12-11T06:08:51.176Z,94918.63
2022-12-11T06:09:52.699Z,94919.31
2022-12-11T06:10:54.214Z,94920.06
2022-12-11T06:11:55.782Z,94917.78
2022-12-11T06:12:57.338Z,94920.16
2022-12-11T06:14:00.608Z,94927.88
2022-12-11T06:15:02.225Z,94930.22
2022-12-11T06:16:06.025Z,94926.78
2022-12-11T06:17:07.660Z,94914.06
2022-12-11T06:18:09.415Z,94927.16
2022-12-11T06:19:18.409Z,94927.94
2022-12-11T06:20:20.046Z,94930.22
2022-12-11T06:21:27.933Z,94930.22
2022-12-11T06:22:30.381Z,94939.09
2022-12-11T06:23:31.961Z,94932.56
2022-12-11T06:24:33.570Z,94931.84
2022-12-11T06:25:35.370Z,94927.25
2022-12-11T06:26:36.930Z,94934.53
2022-12-11T06:27:38.475Z,94933.00
2022-12-11T06:28:40.130Z,94940.25
2022-12-11T06:29:41.714Z,94936.41
2022-12-11T06:30:43.468Z,94937.91
2022-12-11T06:31:45.086Z,94945.59
2022-12-11T06:32:46.673Z,94944.78
2022-12-11T06:33:48.214Z,94942.50
2022-12-11T06:34:49.721Z,94946.31
2022-12-11T06:35:52.278Z,94940.91
2022-12-11T06:36:53.792Z,94947.41
2022-12-11T06:37:55.344Z,94953.16
2022-12-11T06:38:56.938Z,94948.56
2022-12-11T06:39:58.458Z,94949.38
2022-12-11T06:41:02.743Z,94950.16
2022-12-11T06:42:04.386Z,94947.13
2022-12-11T06:43:05.950Z,94937.00
2022-12-11T06:44:07.542Z,94942.00
2022-12-11T06:45:09.842Z,94933.97
2022-12-11T06:46:15.507Z,94935.53
2022-12-11T06:47:17.118Z,94935.19
2022-12-11T06:48:20.131Z,94926.31
2022-12-11T06:49:21.819Z,94929.41
2022-12-11T06:50:23.339Z,94933.97
2022-12-11T06:51:24.959Z,94930.09
2022-12-11T06:52:27.627Z,94934.72
2022-12-11T06:53:29.146Z,94930.94
2022-12-11T06:54:30.835Z,94933.28
2022-12-11T06:55:36.146Z,94929.41
2022-12-11T06:56:37.671Z,94933.97
2022-12-11T06:57:39.361Z,94929.41
2022-12-11T06:58:41.590Z,94930.56
2022-12-11T06:59:43.566Z,94929.34
2022-12-11T07:00:45.217Z,94928.59
2022-12-11T07:01:46.873Z,94936.34
2022-12-11T07:02:50.746Z,94936.28
2022-12-11T07:03:57.259Z,94937.00
2022-12-11T07:04:58.789Z,94943.16
2022-12-11T07:06:02.483Z,94947.06
2022-12-11T07:07:04.072Z,94942.44
2022-12-11T07:08:07.483Z,94942.50
2022-12-11T07:09:10.066Z,94935.19
2022-12-11T07:10:11.966Z,94929.41
2022-12-11T07:11:15.494Z,94936.41
2022-12-11T07:12:17.578Z,94932.50
2022-12-11T07:13:19.118Z,94930.94
2022-12-11T07:14:20.735Z,94936.34
2022-12-11T07:15:22.364Z,94942.50
2022-12-11T07:16:23.997Z,94933.28
2022-12-11T07:17:25.900Z,94940.19
2022-12-11T07:18:28.278Z,94934.41
2022-12-11T07:19:29.903Z,94939.03
2022-12-11T07:20:31.479Z,94934.41
2022-12-11T07:21:33.046Z,94930.13
2022-12-11T07:22:35.026Z,94936.28
2022-12-11T07:23:36.924Z,94945.53
2022-12-11T07:24:38.494Z,94943.97
2022-12-11T07:25:40.043Z,94935.44
2022-12-11T07:26:41.596Z,94937.75
2022-12-11T07:27:43.582Z,94943.16
2022-12-11T07:28:45.990Z,94937.75
2022-12-11T07:29:47.513Z,94942.63
2022-12-11T07:30:49.110Z,94949.19
2022-12-11T07:31:50.790Z,94947.66
2022-12-11T07:32:52.449Z,94947.66
2022-12-11T07:33:58.390Z,94951.09
2022-12-11T07:35:00.083Z,94948.41
2022-12-11T07:36:06.552Z,94949.91
2022-12-11T07:37:08.498Z,94954.50
2022-12-11T07:38:10.039Z,94952.16
2022-12-11T07:39:12.426Z,94945.19
2022-12-11T07:40:14.246Z,94945.06
2022-12-11T07:41:16.232Z,94959.69
2022-12-11T07:42:17.763Z,94956.63
2022-12-11T07:43:19.307Z,94952.06
2022-12-11T07:44:20.950Z,94952.44
2022-12-11T07:45:22.472Z,94959.00
2022-12-11T07:46:26.279Z,94947.44
2022-12-11T07:47:27.806Z,94948.91
2022-12-11T07:48:29.874Z,94952.69
2022-12-11T07:49:31.402Z,94941.75
2022-12-11T07:50:39.493Z,94945.91
2022-12-11T07:51:43.435Z,94936.03
2022-12-11T07:52:45.153Z,94934.44
2022-12-11T07:53:50.098Z,94938.91
2022-12-11T07:54:51.682Z,94924.16
2022-12-11T07:55:53.239Z,94927.06
2022-12-11T07:56:54.798Z,94915.88
2022-12-11T07:57:56.319Z,94917.28
2022-12-11T07:59:02.474Z,94922.53
2022-12-11T08:00:05.294Z,94925.25
2022-12-11T08:01:12.392Z,94925.94
2022-12-11T08:02:14.236Z,94914.16
2022-12-11T08:03:16.158Z,94917.13
2022-12-11T08:04:17.743Z,94911.56
2022-12-11T08:05:19.309Z,94905.47
2022-12-11T08:06:25.746Z,94911.16
2022-12-11T08:07:27.242Z,94907.88
2022-12-11T08:08:28.816Z,94914.63
2022-12-11T08:09:30.494Z,94904.47
2022-12-11T08:10:32.226Z,94906.69
2022-12-11T08:11:34.339Z,94913.81
2022-12-11T08:12:35.908Z,94905.47
2022-12-11T08:13:37.898Z,94906.31
2022-12-11T08:14:39.435Z,94909.03
2022-12-11T08:15:40.998Z,94907.09
2022-12-11T08:16:44.192Z,94912.53
2022-12-11T08:17:45.930Z,94910.34
2022-12-11T08:18:48.513Z,94917.03
2022-12-11T08:19:50.085Z,94910.34
2022-12-11T08:20:51.574Z,94910.06
2022-12-11T08:21:53.147Z,94912.47
2022-12-11T08:22:58.884Z,94916.91
2022-12-11T08:24:00.815Z,94910.31
2022-12-11T10:07:04.087Z,94834.63
2022-12-11T10:08:08.639Z,94832.44
2022-12-11T10:09:40.788Z,94826.34
2022-12-11T10:11:05.786Z,94839.53
2022-12-11T10:12:34.982Z,94827.22
2022-12-11T10:14:13.423Z,94826.69
2022-12-11T10:15:20.153Z,94826.78
2022-12-11T10:16:45.170Z,94827.63
2022-12-11T10:17:47.507Z,94826.50
2022-12-11T10:18:56.701Z,94827.78
2022-12-11T10:20:07.757Z,94819.25
2022-12-11T10:21:10.519Z,94824.56
2022-12-11T10:22:24.146Z,94821.88
2022-12-11T10:23:35.556Z,94813.00
2022-12-11T10:25:11.175Z,94814.53
2022-12-11T10:26:20.630Z,94804.47
2022-12-11T10:27:26.366Z,94808.34
2022-12-11T10:28:28.795Z,94808.44
2022-12-11T10:29:30.430Z,94811.53
2022-12-11T10:30:37.994Z,94809.19
2022-12-11T10:31:45.818Z,94798.28
2022-12-11T10:32:59.175Z,94809.88
2022-12-11T10:34:11.768Z,94799.72
2022-12-11T10:35:36.899Z,94806.31
2022-12-11T10:36:40.634Z,94799.06
2022-12-11T10:37:42.205Z,94807.16
2022-12-11T10:38:45.511Z,94804.81
2022-12-11T10:39:47.034Z,94800.59
2022-12-11T10:40:55.490Z,94806.53
2022-12-11T10:41:57.381Z,94795.47
2022-12-11T10:42:59.059Z,94795.47
2022-12-11T10:44:01.891Z,94795.63
2022-12-11T10:45:05.745Z,94795.63
2022-12-11T10:46:16.591Z,94796.38
2022-12-11T10:47:18.904Z,94792.56
2022-12-11T10:48:20.795Z,94794.09
2022-12-11T10:49:28.704Z,94801.03
2022-12-11T10:50:30.568Z,94799.91
2022-12-11T10:51:32.041Z,94796.53
2022-12-11T10:52:38.268Z,94796.19
2022-12-11T10:53:40.556Z,94792.72
2022-12-11T10:54:48.865Z,94788.00
2022-12-11T10:55:50.657Z,94792.00
2022-12-11T10:56:52.291Z,94790.50
2022-12-11T10:57:57.623Z,94799.13
2022-12-11T10:59:01.053Z,94789.81
2022-12-11T11:00:06.541Z,94791.00
2022-12-11T11:01:15.261Z,94792.09
2022-12-11T11:02:37.653Z,94783.56
2022-12-11T11:03:59.033Z,94794.03
2022-12-11T11:05:11.491Z,94785.72
2022-12-11T11:06:18.649Z,94785.53
2022-12-11T11:07:20.170Z,94786.78
2022-12-11T11:08:25.285Z,94778.53
2022-12-11T11:09:36.507Z,94772.16
2022-12-11T11:10:38.010Z,94784.41
2022-12-11T11:11:39.689Z,94784.56
2022-12-11T11:12:46.948Z,94785.44
2022-12-11T11:13:48.790Z,94783.16
2022-12-11T11:15:05.850Z,94780.13
2022-12-11T11:16:12.503Z,94777.41
2022-12-11T11:17:17.613Z,94781.75
2022-12-11T11:18:30.392Z,94778.69
2022-12-11T11:19:36.419Z,94763.31
2022-12-11T11:20:47.414Z,94771.41
2022-12-11T11:21:52.341Z,94770.16
2022-12-11T11:22:58.115Z,94772.09
2022-12-11T11:24:00.229Z,94762.03
2022-12-11T11:25:02.712Z,94765.88
2022-12-11T11:26:09.249Z,94771.66
2022-12-11T11:27:18.623Z,94769.34
2022-12-11T11:28:25.168Z,94770.47
2022-12-11T11:29:33.682Z,94767.03
2022-12-11T11:30:39.621Z,94770.81
2022-12-11T11:31:42.375Z,94773.88
2022-12-11T11:32:44.113Z,94772.28
2022-12-11T11:33:58.791Z,94773.19
2022-12-11T11:35:20.017Z,94758.50
2022-12-11T11:36:25.148Z,94769.16
2022-12-11T11:37:34.369Z,94765.88
2022-12-11T11:38:47.816Z,94755.44
2022-12-11T11:39:55.505Z,94764.25
2022-12-11T11:41:19.989Z,94761.63
2022-12-11T11:42:30.173Z,94766.41
2022-12-11T11:43:40.412Z,94763.44
2022-12-11T11:44:52.482Z,94763.78
2022-12-11T11:45:59.341Z,94778.47
2022-12-11T11:47:11.259Z,94770.00
2022-12-11T11:48:36.530Z,94775.06
2022-12-11T11:50:08.618Z,94773.53
2022-12-11T11:51:15.774Z,94770.84
2022-12-11T11:52:45.446Z,94771.16
2022-12-11T11:53:50.862Z,94775.75
2022-12-11T11:55:22.420Z,94776.56
2022-12-11T11:56:37.531Z,94782.81
2022-12-11T11:57:47.799Z,94775.88
2022-12-11T11:58:56.300Z,94777.41
2022-12-11T12:00:20.754Z,94781.97
2022-12-11T12:01:22.722Z,94782.81
2022-12-11T12:02:24.386Z,94766.59
2022-12-11T12:03:26.250Z,94780.94
2022-12-11T12:04:33.668Z,94778.94
2022-12-11T12:05:57.681Z,94780.47
2022-12-11T12:07:24.121Z,94781.16
2022-12-11T12:08:37.660Z,94781.97
2022-12-11T12:09:57.969Z,94787.69
2022-12-11T12:11:05.511Z,94788.44
2022-12-11T12:12:33.815Z,94785.47
2022-12-11T12:13:54.191Z,94779.06
2022-12-11T12:15:04.855Z,94784.94
2022-12-11T12:16:44.070Z,94776.47
2022-12-11T12:18:12.000Z,94778.06
2022-12-11T12:19:25.578Z,94783.50
2022-12-11T12:20:30.048Z,94782.69
2022-12-11T12:21:36.888Z,94783.50
2022-12-11T12:23:00.737Z,94782.69
2022-12-11T12:24:08.351Z,94786.47
2022-12-11T12:25:24.304Z,94783.03
2022-12-11T12:26:29.574Z,94782.56
2022-12-11T12:27:52.210Z,94793.31
2022-12-11T12:29:31.960Z,94794.03
2022-12-11T12:30:52.220Z,94794.03
2022-12-11T12:32:00.579Z,94804.88
2022-12-11T12:33:34.637Z,94803.34
2022-12-11T12:34:41.676Z,94807.59
2022-12-11T12:36:06.600Z,94803.47
2022-12-11T12:37:30.199Z,94807.44
2022-12-11T12:38:54.051Z,94810.50
2022-12-11T12:40:37.820Z,94814.47
2022-12-11T12:42:07.064Z,94816.09
2022-12-11T12:43:34.105Z,94820.66
2022-12-11T12:45:22.152Z,94816.47
2022-12-11T12:46:38.082Z,94808.00
2022-12-11T12:47:50.420Z,94819.25
2022-12-11T12:48:57.141Z,94816.19
2022-12-11T12:50:01.271Z,94821.72
2022-12-11T12:51:04.342Z,94820.09
2022-12-11T12:52:18.725Z,94824.72
2022-12-11T12:53:25.902Z,94829.44
2022-12-11T12:54:30.336Z,94824.03
2022-12-11T12:55:33.154Z,94832.50
2022-12-11T12:56:36.671Z,94834.03
2022-12-11T12:57:41.735Z,94840.94
2022-12-11T12:58:45.898Z,94839.81
2022-12-11T12:59:54.626Z,94844.84
2022-12-11T13:01:08.771Z,94855.59
2022-12-11T13:02:16.377Z,94851.72
2022-12-11T13:03:20.900Z,94855.59
2022-12-11T13:04:58.470Z,94854.00
2022-12-11T13:06:09.503Z,94858.03
2022-12-11T13:07:20.434Z,94847.34
2022-12-11T13:08:41.100Z,94860.38
2022-12-11T13:09:42.894Z,94869.72
2022-12-11T13:10:44.770Z,94862.69
2022-12-11T13:11:52.129Z,94871.22
2022-12-11T13:12:54.339Z,94870.34
2022-12-11T13:14:22.534Z,94874.56
2022-12-11T13:15:30.286Z,94878.47
2022-12-11T13:16:38.829Z,94878.88
2022-12-11T13:17:40.588Z,94878.53
2022-12-11T13:18:45.546Z,94876.63
2022-12-11T13:19:49.039Z,94880.88
2022-12-11T13:20:51.935Z,94879.78
2022-12-11T13:21:56.450Z,94882.19
2022-12-11T13:23:07.295Z,94883.25
2022-12-11T13:24:24.228Z,94882.88
2022-12-11T13:25:29.250Z,94882.56
2022-12-11T13:26:33.220Z,94882.13
2022-12-11T13:27:34.717Z,94882.88
2022-12-11T13:28:39.032Z,94892.50
2022-12-11T13:29:42.503Z,94892.81
2022-12-11T13:30:44.190Z,94894.34
2022-12-11T13:32:25.427Z,94890.50
2022-12-11T13:33:29.971Z,94901.16
2022-12-11T13:34:35.250Z,94901.16
2022-12-11T13:35:37.395Z,94906.53
2022-12-11T13:36:40.886Z,94903.78
2022-12-11T13:37:47.328Z,94903.38
2022-12-11T13:38:53.613Z,94904.22
2022-12-11T13:39:56.167Z,94905.38
2022-12-11T13:41:00.044Z,94903.41
2022-12-11T13:42:05.660Z,94900.81
2022-12-11T13:43:19.882Z,94892.09
2022-12-11T13:44:40.869Z,94895.72
2022-12-11T13:45:42.403Z,94892.31
2022-12-11T13:46:44.223Z,94896.16
2022-12-11T13:47:46.899Z,94903.03
2022-12-11T13:49:04.937Z,94902.94
2022-12-11T13:50:18.671Z,94903.59
2022-12-11T13:51:23.523Z,94911.25
2022-12-11T13:52:27.718Z,94910.03
2022-12-11T13:53:29.571Z,94915.03
2022-12-11T13:54:33.910Z,94913.50
2022-12-11T13:55:35.661Z,94916.50
2022-12-11T13:56:37.479Z,94914.94
2022-12-11T13:57:45.937Z,94911.13
2022-12-11T13:58:48.034Z,94899.38
2022-12-11T13:59:53.311Z,94899.88
2022-12-11T14:01:03.989Z,94904.69
2022-12-11T14:02:40.272Z,94901.47
2022-12-11T14:04:09.067Z,94892.75
2022-12-11T14:05:13.060Z,94888.22
2022-12-11T14:06:18.859Z,94895.66
2022-12-11T14:07:27.042Z,94899.94
2022-12-11T14:08:35.593Z,94896.13
2022-12-11T14:09:44.371Z,94898.44
2022-12-11T14:10:52.632Z,94894.69
2022-12-11T14:11:57.323Z,94892.38
2022-12-11T14:13:06.064Z,94897.03
2022-12-11T14:14:21.337Z,94901.69
2022-12-11T14:15:23.462Z,94897.09
2022-12-11T14:16:26.828Z,94895.56
2022-12-11T14:17:31.585Z,94898.63
2022-12-11T14:18:35.759Z,94889.75
2022-12-11T14:19:37.363Z,94894.38
2022-12-11T14:20:39.195Z,94894.00
2022-12-11T14:21:40.826Z,94889.38
2022-12-11T14:22:42.413Z,94888.63
2022-12-11T14:23:55.138Z,94885.56
2022-12-11T14:24:59.694Z,94889.03
2022-12-11T14:26:17.082Z,94886.69
2022-12-11T14:27:19.840Z,94894.78
2022-12-11T14:28:23.298Z,94894.00
2022-12-11T14:29:28.460Z,94890.91
2022-12-11T14:30:33.184Z,94894.00
2022-12-11T14:31:39.766Z,94894.00
2022-12-11T14:32:45.196Z,94887.84
2022-12-11T14:33:54.118Z,94888.25
2022-12-11T14:34:57.075Z,94896.72
2022-12-11T14:36:00.098Z,94893.31
2022-12-11T14:37:05.333Z,94891.75
2022-12-11T14:38:29.295Z,94894.44
2022-12-11T14:39:56.546Z,94902.50
2022-12-11T14:41:05.283Z,94903.25